Wayside, Wisconsin
Current Conditions -  °F | °C
As of 1:53 AM on Sunday 26 Oct 2014 (Local Time) from KGRB Reporting Station
Clear Clear  
Wind Chill: 38°   Ceiling: Unl
Heat Index: 42°   Visibility: 10mi
Dew Point: 29°   Wind: 7mph
Humidity: 60%   Direction: 290°WNW
Pressure: 29.94"   Gusts: NA
Location:  44.2894°N, 88.0263°W
Report Text: KGRB 260653Z AUTO 29006KT 10SM CLR 06/M02 A2994 RMK AO2 SLP139 T00561017
Loading
Personal Weather Stations






























Interactive Weather Map
Tropical Storm Tracking
New forecast layout! Learn more

10-Day Weather Forecast

Advertisements
Track Severe Weather on mobile